createdAt,value
2022-10-20T00:01:22.093Z,5.10
2022-10-20T00:03:52.709Z,4.90
2022-10-20T00:06:22.870Z,4.80
2022-10-20T00:08:51.845Z,4.78
2022-10-20T00:11:22.146Z,5.20
2022-10-20T00:13:52.789Z,5.10
2022-10-20T00:16:22.982Z,5.30
2022-10-20T00:18:52.807Z,5.07
2022-10-20T00:21:23.208Z,5.13
2022-10-20T00:23:52.126Z,5.65
2022-10-20T00:26:22.809Z,5.55
2022-10-20T00:28:51.908Z,5.20
2022-10-20T00:31:22.229Z,5.00
2022-10-20T00:33:50.531Z,5.32
2022-10-20T00:36:21.935Z,5.50
2022-10-20T00:38:51.139Z,5.18
2022-10-20T00:41:22.281Z,5.47
2022-10-20T00:43:54.670Z,5.18
2022-10-20T00:46:24.747Z,4.88
2022-10-20T00:48:55.605Z,5.00
2022-10-20T00:51:29.101Z,4.80
2022-10-20T00:54:01.343Z,5.07
2022-10-20T00:56:29.701Z,5.05
2022-10-20T00:58:58.136Z,4.70
2022-10-20T01:01:26.858Z,4.55
2022-10-20T01:03:55.255Z,4.72
2022-10-20T01:06:25.030Z,5.28
2022-10-20T01:08:55.094Z,4.80
2022-10-20T01:11:33.222Z,4.80
2022-10-20T01:14:21.569Z,5.22
2022-10-20T01:17:00.394Z,5.00
2022-10-20T01:20:12.869Z,4.40
2022-10-20T01:23:12.233Z,5.40
2022-10-20T01:25:56.721Z,5.35
2022-10-20T01:28:32.804Z,5.13
2022-10-20T01:31:04.622Z,5.30
2022-10-20T01:33:41.605Z,5.43
2022-10-20T01:36:18.728Z,5.78
2022-10-20T01:38:53.506Z,5.45
2022-10-20T01:41:33.081Z,5.60
2022-10-20T01:44:05.544Z,5.35
2022-10-20T01:46:35.159Z,5.40
2022-10-20T01:49:05.067Z,5.10
2022-10-20T01:51:33.864Z,5.07
2022-10-20T01:54:02.181Z,4.80
2022-10-20T01:56:39.498Z,5.03
2022-10-20T01:59:42.544Z,5.40
2022-10-20T02:02:33.216Z,5.30
2022-10-20T02:05:17.322Z,5.00
2022-10-20T02:07:45.916Z,5.05
2022-10-20T02:10:18.489Z,5.00
2022-10-20T02:12:51.715Z,5.05
2022-10-20T02:15:25.476Z,4.85
2022-10-20T02:17:57.797Z,5.07
2022-10-20T02:20:26.383Z,5.22
2022-10-20T02:22:55.699Z,5.10
2022-10-20T02:25:25.355Z,4.80
2022-10-20T02:27:55.973Z,5.10
2022-10-20T02:30:26.222Z,4.85
2022-10-20T02:32:54.515Z,4.90
2022-10-20T02:35:27.449Z,5.28
2022-10-20T02:37:55.688Z,4.97
2022-10-20T02:40:23.948Z,4.88
2022-10-20T02:42:52.317Z,4.70
2022-10-20T02:45:20.908Z,4.85
2022-10-20T02:47:50.638Z,5.22
2022-10-20T02:50:19.054Z,5.68
2022-10-20T02:52:47.428Z,5.30
2022-10-20T02:55:15.901Z,5.47
2022-10-20T02:57:44.345Z,5.40
2022-10-20T03:00:13.892Z,5.70
2022-10-20T03:02:42.235Z,5.28
2022-10-20T03:05:12.125Z,5.32
2022-10-20T03:07:40.490Z,5.65
2022-10-20T03:10:09.759Z,5.13
2022-10-20T03:12:38.055Z,5.30
2022-10-20T03:15:07.376Z,4.93
2022-10-20T03:17:36.175Z,5.47
2022-10-20T03:20:05.529Z,4.90
2022-10-20T03:22:35.195Z,4.90
2022-10-20T03:25:03.445Z,4.68
2022-10-20T03:27:31.714Z,4.75
2022-10-20T03:30:00.053Z,4.95
2022-10-20T03:32:28.340Z,4.90
2022-10-20T03:34:56.646Z,5.53
2022-10-20T03:37:25.031Z,4.70
2022-10-20T03:39:54.862Z,4.85
2022-10-20T03:42:23.199Z,4.95
2022-10-20T03:44:51.522Z,5.05
2022-10-20T03:47:19.823Z,4.63
2022-10-20T03:49:48.122Z,4.60
2022-10-20T03:52:16.486Z,4.53
2022-10-20T03:54:45.026Z,5.10
2022-10-20T03:57:14.735Z,4.83
2022-10-20T03:59:43.125Z,5.13
2022-10-20T04:02:24.695Z,4.90
2022-10-20T04:04:53.480Z,4.78
2022-10-20T04:07:21.828Z,4.53
2022-10-20T04:09:50.085Z,4.80
2022-10-20T04:12:20.017Z,4.60
2022-10-20T04:14:50.104Z,4.50
2022-10-20T04:17:18.417Z,4.70
2022-10-20T04:19:47.329Z,4.70
2022-10-20T04:22:15.745Z,4.72
2022-10-20T04:24:44.074Z,5.17
2022-10-20T04:27:12.591Z,4.83
2022-10-20T04:29:42.383Z,5.43
2022-10-20T04:32:10.792Z,5.10
2022-10-20T04:34:39.066Z,5.10
2022-10-20T04:37:07.523Z,5.50
2022-10-20T04:39:35.820Z,5.20
2022-10-20T04:42:04.220Z,5.03
2022-10-20T04:44:32.548Z,5.27
2022-10-20T04:47:02.356Z,5.40
2022-10-20T04:49:30.655Z,4.80
2022-10-20T04:52:01.131Z,4.87
2022-10-20T04:54:30.349Z,5.50
2022-10-20T04:56:58.730Z,5.63
2022-10-20T04:59:27.106Z,5.87
2022-10-20T05:01:55.454Z,5.77
2022-10-20T05:04:25.549Z,5.70
2022-10-20T05:06:53.901Z,5.20
2022-10-20T05:09:22.352Z,5.33
2022-10-20T05:11:50.663Z,5.67
2022-10-20T05:14:18.953Z,5.87
2022-10-20T05:16:47.318Z,6.10
2022-10-20T05:19:15.640Z,5.73
2022-10-20T05:21:45.557Z,5.73
2022-10-20T05:24:19.788Z,5.67
2022-10-20T05:26:49.908Z,5.43
2022-10-20T05:29:18.143Z,5.80
2022-10-20T05:31:46.424Z,5.83
2022-10-20T05:34:14.717Z,5.40
2022-10-20T05:36:44.440Z,5.53
2022-10-20T05:39:12.958Z,5.10
2022-10-20T05:41:41.461Z,5.17
2022-10-20T05:44:12.911Z,4.93
2022-10-20T05:46:42.725Z,4.90
2022-10-20T05:49:15.755Z,5.07
2022-10-20T05:51:47.257Z,4.67
2022-10-20T05:54:17.491Z,5.57
2022-10-20T05:56:45.829Z,5.20
2022-10-20T05:59:14.818Z,5.40
2022-10-20T06:01:49.108Z,5.43
2022-10-20T06:04:19.056Z,5.83
2022-10-20T06:06:49.050Z,5.40
2022-10-20T06:09:18.125Z,5.50
2022-10-20T06:11:46.474Z,5.93
2022-10-20T06:14:14.883Z,6.37
2022-10-20T06:16:43.104Z,7.97
2022-10-20T06:19:11.853Z,8.97
2022-10-20T06:21:40.214Z,8.07
2022-10-20T06:24:11.679Z,9.10
2022-10-20T06:26:40.766Z,8.13
2022-10-20T06:29:11.483Z,6.87
2022-10-20T06:31:41.269Z,7.10
2022-10-20T06:34:12.651Z,6.67
2022-10-20T06:36:42.324Z,6.23
2022-10-20T06:39:15.048Z,6.60
2022-10-20T06:41:43.706Z,6.50
2022-10-20T06:44:12.741Z,6.27
2022-10-20T06:46:41.095Z,6.60
2022-10-20T06:49:11.670Z,6.73
2022-10-20T06:51:40.492Z,6.77
2022-10-20T06:54:09.452Z,7.97
2022-10-20T06:56:41.330Z,8.37
2022-10-20T06:59:09.806Z,7.50
2022-10-20T07:01:40.097Z,6.90
2022-10-20T07:04:11.584Z,6.53
2022-10-20T07:06:41.816Z,6.83
2022-10-20T07:09:15.821Z,7.13
2022-10-20T07:11:46.156Z,6.90
2022-10-20T07:14:15.129Z,7.27
2022-10-20T07:16:43.518Z,7.27
2022-10-20T07:19:11.922Z,5.97
2022-10-20T07:21:41.756Z,6.20
2022-10-20T07:24:13.703Z,5.97
2022-10-20T07:26:42.833Z,5.70
2022-10-20T07:29:13.232Z,5.57
2022-10-20T07:31:43.400Z,5.43
2022-10-20T07:34:25.198Z,5.10
2022-10-20T07:36:55.451Z,5.75
2022-10-20T07:39:23.766Z,6.63
2022-10-20T07:41:52.096Z,6.95
2022-10-20T07:44:21.770Z,7.20
2022-10-20T07:46:50.209Z,8.45
2022-10-20T07:49:43.592Z,10.93
2022-10-20T07:52:07.443Z,12.20
2022-10-20T07:54:35.850Z,13.02
2022-10-20T07:57:04.139Z,11.75
2022-10-20T07:59:33.910Z,11.27
2022-10-20T08:02:02.301Z,12.60
2022-10-20T08:04:31.869Z,12.45
2022-10-20T08:07:01.110Z,13.13
2022-10-20T08:09:29.543Z,13.18
2022-10-20T08:11:58.045Z,13.52
2022-10-20T08:14:30.785Z,14.77
2022-10-20T08:17:00.599Z,14.77
2022-10-20T08:19:49.974Z,15.15
2022-10-20T08:22:19.993Z,14.02
2022-10-20T08:24:48.288Z,13.52
2022-10-20T08:27:16.607Z,14.35
2022-10-20T08:29:50.909Z,13.77
2022-10-20T08:32:35.208Z,13.57
2022-10-20T08:35:03.728Z,14.60
2022-10-20T08:37:32.405Z,14.55
2022-10-20T08:40:00.819Z,13.38
2022-10-20T08:42:29.160Z,12.45
2022-10-20T08:45:01.531Z,13.15
2022-10-20T08:47:34.314Z,13.07
2022-10-20T08:50:06.050Z,12.73
2022-10-20T08:52:34.705Z,15.00
2022-10-20T08:55:06.397Z,14.32
2022-10-20T08:57:37.243Z,13.68
2022-10-20T09:00:15.854Z,12.77
2022-10-20T09:02:48.716Z,12.63
2022-10-20T09:05:24.431Z,13.20
2022-10-20T09:07:53.863Z,11.98
2022-10-20T09:10:31.126Z,14.23
2022-10-20T09:13:00.399Z,13.77
2022-10-20T09:15:30.072Z,13.52
2022-10-20T09:18:01.940Z,13.07
2022-10-20T09:20:35.639Z,13.23
2022-10-20T09:23:07.846Z,13.27
2022-10-20T09:25:46.458Z,12.18
2022-10-20T09:28:22.809Z,11.68
2022-10-20T09:30:51.735Z,10.40
2022-10-20T09:33:29.034Z,11.98
2022-10-20T09:36:06.028Z,11.25
2022-10-20T09:38:36.638Z,11.50
2022-10-20T09:41:12.478Z,11.15
2022-10-20T09:43:50.011Z,11.27
2022-10-20T09:46:23.108Z,11.13
2022-10-20T09:48:52.451Z,10.52
2022-10-20T09:51:25.002Z,10.52
2022-10-20T09:53:59.967Z,8.93
2022-10-20T09:56:30.919Z,8.90
2022-10-20T09:59:01.592Z,9.52
2022-10-20T10:01:30.312Z,8.77
2022-10-20T10:04:02.090Z,7.90
2022-10-20T10:06:41.838Z,7.80
2022-10-20T10:09:27.245Z,7.90
2022-10-20T10:12:00.965Z,7.68
2022-10-20T10:14:29.408Z,7.28
2022-10-20T10:16:58.001Z,7.43
2022-10-20T10:19:28.723Z,8.05
2022-10-20T10:22:00.227Z,8.45
2022-10-20T10:24:40.468Z,7.55
2022-10-20T10:27:21.112Z,7.03
2022-10-20T10:29:49.600Z,7.72
2022-10-20T10:32:19.639Z,7.10
2022-10-20T10:35:11.177Z,7.95
2022-10-20T10:37:43.809Z,7.00
2022-10-20T10:40:17.727Z,6.53
2022-10-20T10:43:08.145Z,6.53
2022-10-20T10:45:46.438Z,6.32
2022-10-20T10:48:45.797Z,6.72
2022-10-20T10:51:23.435Z,6.93
2022-10-20T10:54:01.974Z,7.07
2022-10-20T10:56:38.669Z,6.75
2022-10-20T10:59:12.582Z,6.53
2022-10-20T11:02:03.663Z,6.00
2022-10-20T11:05:07.409Z,6.25
2022-10-20T11:07:42.890Z,6.10
2022-10-20T11:10:19.467Z,5.60
2022-10-20T11:13:01.694Z,5.20
2022-10-20T11:15:40.882Z,6.05
2022-10-20T11:18:18.712Z,5.53
2022-10-20T11:20:58.330Z,5.07
2022-10-20T11:23:59.737Z,5.20
2022-10-20T11:26:33.972Z,4.65
2022-10-20T11:29:05.295Z,5.32
2022-10-20T11:31:40.138Z,4.68
2022-10-20T11:34:15.342Z,4.20
2022-10-20T11:36:50.844Z,4.32
2022-10-20T11:39:26.329Z,4.43
2022-10-20T11:42:06.592Z,3.92
2022-10-20T11:44:41.332Z,3.70
2022-10-20T11:47:14.786Z,3.42
2022-10-20T11:49:43.641Z,3.50
2022-10-20T11:52:40.318Z,3.80
2022-10-20T11:55:40.207Z,2.78
2022-10-20T11:58:33.806Z,3.20
2022-10-20T12:01:18.869Z,3.00
2022-10-20T12:04:15.397Z,2.70
2022-10-20T12:07:09.079Z,2.97
2022-10-20T12:10:04.640Z,2.70
2022-10-20T12:12:41.406Z,2.42
2022-10-20T12:15:23.755Z,2.10
2022-10-20T12:17:54.190Z,2.70
2022-10-20T12:20:51.319Z,2.28
2022-10-20T12:23:55.087Z,2.30
2022-10-20T12:26:56.110Z,2.33
2022-10-20T12:29:55.958Z,2.20
2022-10-20T12:33:09.978Z,2.70
2022-10-20T12:36:02.408Z,2.47
2022-10-20T12:38:32.094Z,2.30
2022-10-20T12:41:02.710Z,3.33
2022-10-20T12:43:50.650Z,2.95
2022-10-20T12:46:23.329Z,2.85
2022-10-20T12:49:00.148Z,2.60
2022-10-20T12:51:41.155Z,2.58
2022-10-20T12:54:20.830Z,2.90
2022-10-20T12:56:50.091Z,2.65
2022-10-20T12:59:41.107Z,2.75
2022-10-20T13:02:49.717Z,3.05
2022-10-20T13:05:45.728Z,2.60
2022-10-20T13:08:32.860Z,2.92
2022-10-20T13:11:42.100Z,2.90
2022-10-20T13:14:55.461Z,2.65
2022-10-20T13:17:30.515Z,3.13
2022-10-20T13:20:02.107Z,3.10
2022-10-20T13:22:46.626Z,2.95
2022-10-20T13:25:30.760Z,2.97
2022-10-20T13:28:24.421Z,2.85
2022-10-20T13:31:11.144Z,2.83
2022-10-20T13:36:47.263Z,3.00
2022-10-20T13:39:22.793Z,3.17
2022-10-20T13:42:01.092Z,3.58
2022-10-20T13:44:40.530Z,2.65
2022-10-20T13:47:24.863Z,2.72
2022-10-20T13:50:06.037Z,2.85
2022-10-20T13:52:39.160Z,3.20
2022-10-20T13:55:17.257Z,2.95
2022-10-20T13:57:55.255Z,2.92
2022-10-20T14:00:27.305Z,2.40
2022-10-20T14:02:58.490Z,3.05
2022-10-20T14:05:28.801Z,3.00
2022-10-20T14:07:57.650Z,3.00
2022-10-20T14:10:33.532Z,3.00
2022-10-20T14:13:03.665Z,3.20
2022-10-20T14:15:34.917Z,3.20
2022-10-20T14:18:05.562Z,2.95
2022-10-20T14:20:37.517Z,2.67
2022-10-20T14:23:07.870Z,2.67
2022-10-20T14:25:39.500Z,2.80
2022-10-20T14:28:08.181Z,2.83
2022-10-20T14:30:40.139Z,2.85
2022-10-20T14:33:16.282Z,2.72
2022-10-20T14:35:46.951Z,2.50
2022-10-20T14:38:20.859Z,2.78
2022-10-20T14:40:56.509Z,2.78
2022-10-20T14:43:32.124Z,2.80
2022-10-20T14:46:02.837Z,2.80
2022-10-20T14:48:37.033Z,2.72
2022-10-20T14:51:30.224Z,2.83
2022-10-20T14:54:17.225Z,3.00
2022-10-20T14:56:48.539Z,3.13
2022-10-20T14:59:18.665Z,2.80
2022-10-20T15:02:01.410Z,2.95
2022-10-20T15:04:33.629Z,2.85
2022-10-20T15:07:07.092Z,2.80
2022-10-20T15:09:40.633Z,2.75
2022-10-20T15:12:17.061Z,3.17
2022-10-20T15:14:48.390Z,3.33
2022-10-20T15:17:37.474Z,3.13
2022-10-20T15:20:31.435Z,3.63
2022-10-20T15:23:01.560Z,3.20
2022-10-20T15:25:32.079Z,3.22
2022-10-20T15:28:01.913Z,3.72
2022-10-20T15:30:36.849Z,3.40
2022-10-20T15:33:05.311Z,3.15
2022-10-20T15:35:34.218Z,3.60
2022-10-20T15:38:02.561Z,4.05
2022-10-20T15:40:30.857Z,3.80
2022-10-20T15:42:59.156Z,3.70
2022-10-20T15:45:33.504Z,3.55
2022-10-20T15:48:01.747Z,3.88
2022-10-20T15:50:30.765Z,4.07
2022-10-20T15:52:59.063Z,4.07
2022-10-20T15:55:30.768Z,4.72
2022-10-20T15:57:59.108Z,4.07
2022-10-20T16:00:30.732Z,4.22
2022-10-20T16:02:59.045Z,3.60
2022-10-20T16:05:28.293Z,3.70
2022-10-20T16:07:57.566Z,4.35
2022-10-20T16:10:29.490Z,4.03
2022-10-20T16:12:59.066Z,3.78
2022-10-20T16:15:30.480Z,4.10
2022-10-20T16:17:59.750Z,3.90
2022-10-20T16:20:28.109Z,4.32
2022-10-20T16:22:56.476Z,4.32
2022-10-20T16:25:25.073Z,3.80
2022-10-20T16:27:53.564Z,3.78
2022-10-20T16:30:22.393Z,3.80
2022-10-20T16:32:52.594Z,4.80
2022-10-20T16:35:20.970Z,4.90
2022-10-20T16:37:49.350Z,4.70
2022-10-20T16:40:17.974Z,4.70
2022-10-20T16:42:46.541Z,4.65
2022-10-20T16:45:14.925Z,4.70
2022-10-20T16:47:43.333Z,4.53
2022-10-20T16:50:16.217Z,3.83
2022-10-20T16:52:44.991Z,3.88
2022-10-20T16:55:13.871Z,3.80
2022-10-20T16:57:42.642Z,3.45
2022-10-20T17:00:12.758Z,3.38
2022-10-20T17:02:43.248Z,3.22
2022-10-20T17:05:13.435Z,3.30
2022-10-20T17:07:41.853Z,3.40
2022-10-20T17:10:10.816Z,3.40
2022-10-20T17:12:39.381Z,3.40
2022-10-20T17:15:09.115Z,3.28
2022-10-20T17:17:37.746Z,3.22
2022-10-20T17:20:07.641Z,2.92
2022-10-20T17:22:37.569Z,3.17
2022-10-20T17:25:07.507Z,3.15
2022-10-20T17:27:36.134Z,3.22
2022-10-20T17:30:04.966Z,3.13
2022-10-20T17:32:33.346Z,3.00
2022-10-20T17:35:01.759Z,3.25
2022-10-20T17:37:30.181Z,2.97
2022-10-20T17:40:00.025Z,2.78
2022-10-20T17:42:28.647Z,3.10
2022-10-20T17:44:56.993Z,3.00
2022-10-20T17:47:25.412Z,3.03
2022-10-20T17:49:53.663Z,3.33
2022-10-20T17:52:22.098Z,2.80
2022-10-20T17:54:50.610Z,2.92
2022-10-20T17:57:20.388Z,3.03
2022-10-20T17:59:54.073Z,3.17
2022-10-20T18:02:24.860Z,3.00
2022-10-20T18:04:53.219Z,3.20
2022-10-20T18:07:21.580Z,3.03
2022-10-20T18:09:50.043Z,3.10
2022-10-20T18:12:20.090Z,3.33
2022-10-20T18:14:48.728Z,3.08
2022-10-20T18:17:17.079Z,2.80
2022-10-20T18:19:45.512Z,3.15
2022-10-20T18:22:14.256Z,3.22
2022-10-20T18:24:43.105Z,3.05
2022-10-20T18:27:11.514Z,3.03
2022-10-20T18:29:41.737Z,2.85
2022-10-20T18:32:10.130Z,2.55
2022-10-20T18:34:39.180Z,2.95
2022-10-20T18:37:07.508Z,3.10
2022-10-20T18:39:36.532Z,3.47
2022-10-20T18:42:05.182Z,3.30
2022-10-20T18:44:33.967Z,3.40
2022-10-20T18:47:04.018Z,3.10
2022-10-20T18:49:32.624Z,3.53
2022-10-20T18:52:03.034Z,3.35
2022-10-20T18:54:31.647Z,3.25
2022-10-20T18:57:00.167Z,3.17
2022-10-20T18:59:28.534Z,3.20
2022-10-20T19:01:56.789Z,3.25
2022-10-20T19:04:26.512Z,3.03
2022-10-20T19:06:54.817Z,3.20
2022-10-20T19:09:23.501Z,3.30
2022-10-20T19:11:51.930Z,3.00
2022-10-20T19:14:20.304Z,3.38
2022-10-20T19:16:49.980Z,3.33
2022-10-20T19:19:18.641Z,3.53
2022-10-20T19:21:48.375Z,3.35
2022-10-20T19:24:19.380Z,3.40
2022-10-20T19:26:57.021Z,3.20
2022-10-20T19:29:36.862Z,3.05
2022-10-20T19:32:07.501Z,3.40
2022-10-20T19:34:38.401Z,2.95
2022-10-20T19:37:08.909Z,3.63
2022-10-20T19:39:39.808Z,3.25
2022-10-20T19:42:09.408Z,3.28
2022-10-20T19:44:38.072Z,3.33
2022-10-20T19:47:08.179Z,3.72
2022-10-20T19:49:37.743Z,3.22
2022-10-20T19:52:09.220Z,3.50
2022-10-20T19:54:37.896Z,3.88
2022-10-20T19:57:07.050Z,4.07
2022-10-20T19:59:35.441Z,3.72
2022-10-20T20:02:03.839Z,3.78
2022-10-20T20:04:32.147Z,3.75
2022-10-20T20:07:02.436Z,3.70
2022-10-20T20:09:32.498Z,3.63
2022-10-20T20:12:00.796Z,3.75
2022-10-20T20:14:29.526Z,3.50
2022-10-20T20:16:57.956Z,3.45
2022-10-20T20:19:28.427Z,3.60
2022-10-20T20:21:56.750Z,3.63
2022-10-20T20:24:25.292Z,3.40
2022-10-20T20:26:55.362Z,3.53
2022-10-20T20:29:23.836Z,3.60
2022-10-20T20:31:52.119Z,3.80
2022-10-20T20:34:20.398Z,3.65
2022-10-20T20:36:49.256Z,3.58
2022-10-20T20:39:17.662Z,3.63
2022-10-20T20:41:47.093Z,3.70
2022-10-20T20:44:17.157Z,4.07
2022-10-20T20:46:45.585Z,3.33
2022-10-20T20:49:14.199Z,3.20
2022-10-20T20:51:42.595Z,3.85
2022-10-20T20:54:11.558Z,3.30
2022-10-20T20:56:39.838Z,3.10
2022-10-20T20:59:08.145Z,3.53
2022-10-20T21:01:37.827Z,3.67
2022-10-20T21:04:10.347Z,3.47
2022-10-20T21:07:00.758Z,3.67
2022-10-20T21:09:29.063Z,3.40
2022-10-20T21:11:57.766Z,3.17
2022-10-20T21:14:26.135Z,3.50
2022-10-20T21:16:55.811Z,3.20
2022-10-20T21:19:24.308Z,3.72
2022-10-20T21:21:57.418Z,3.58
2022-10-20T21:24:26.732Z,3.53
2022-10-20T21:26:55.135Z,4.00
2022-10-20T21:29:23.524Z,3.78
2022-10-20T21:31:51.898Z,3.40
2022-10-20T21:34:21.544Z,3.40
2022-10-20T21:36:49.866Z,3.15
2022-10-20T21:39:18.199Z,3.10
2022-10-20T21:41:47.539Z,3.38
2022-10-20T21:44:16.456Z,3.30
2022-10-20T21:46:47.844Z,3.33
2022-10-20T21:49:18.752Z,3.03
2022-10-20T21:51:50.774Z,3.13
2022-10-20T21:56:50.343Z,2.63
2022-10-20T21:59:21.709Z,3.17
2022-10-20T22:01:51.205Z,3.20
2022-10-20T22:04:21.923Z,3.10
2022-10-20T22:06:51.690Z,3.63
2022-10-20T22:09:21.077Z,3.45
2022-10-20T22:11:55.241Z,3.70
2022-10-20T22:14:23.763Z,3.63
2022-10-20T22:16:52.334Z,3.75
2022-10-20T22:19:22.833Z,3.60
2022-10-20T22:21:53.673Z,3.60
2022-10-20T22:24:22.759Z,3.00
2022-10-20T22:26:52.045Z,3.35
2022-10-20T22:29:21.513Z,3.40
2022-10-20T22:31:50.406Z,2.95
2022-10-20T22:34:18.756Z,3.35
2022-10-20T22:36:47.257Z,3.40
2022-10-20T22:39:16.925Z,3.35
2022-10-20T22:41:45.719Z,3.33
2022-10-20T22:44:14.039Z,3.40
2022-10-20T22:46:42.401Z,3.22
2022-10-20T22:49:10.754Z,3.33
2022-10-20T22:51:39.164Z,3.28
2022-10-20T22:54:08.123Z,3.53
2022-10-20T22:56:37.873Z,3.78
2022-10-20T22:59:06.195Z,3.38
2022-10-20T23:01:34.606Z,3.67
2022-10-20T23:04:03.013Z,3.63
2022-10-20T23:06:31.356Z,3.47
2022-10-20T23:09:00.182Z,3.60
2022-10-20T23:11:29.718Z,3.50
2022-10-20T23:13:59.405Z,3.38
2022-10-20T23:16:28.101Z,3.50
2022-10-20T23:18:56.453Z,3.67
2022-10-20T23:21:24.783Z,3.67
2022-10-20T23:23:53.393Z,3.35
2022-10-20T23:26:21.681Z,3.35
2022-10-20T23:28:50.421Z,3.40
2022-10-20T23:31:22.348Z,3.90
2022-10-20T23:33:54.977Z,3.50
2022-10-20T23:36:23.755Z,3.45
2022-10-20T23:38:52.064Z,3.40
2022-10-20T23:41:20.548Z,3.60
2022-10-20T23:43:48.885Z,3.70
2022-10-20T23:46:17.264Z,3.83
2022-10-20T23:48:46.995Z,3.67
2022-10-20T23:51:15.351Z,3.28
2022-10-20T23:53:43.693Z,3.25
2022-10-20T23:56:11.970Z,3.75
2022-10-20T23:58:40.976Z,3.15
